sensor_id;sensor_type;location;lat;lon;timestamp;temperature;humidity
65637;DHT22;52327;42.622;23.316;2022-12-07T00:01:31;5.47;88.18
65637;DHT22;52327;42.622;23.316;2022-12-07T00:03:58;5.35;89.02
65637;DHT22;52327;42.622;23.316;2022-12-07T00:06:40;5.26;88.71
65637;DHT22;52327;42.622;23.316;2022-12-07T00:09:07;5.25;89.29
65637;DHT22;52327;42.622;23.316;2022-12-07T00:11:33;5.19;89.68
65637;DHT22;52327;42.622;23.316;2022-12-07T00:14:02;5.25;90.00
65637;DHT22;52327;42.622;23.316;2022-12-07T00:16:30;5.20;90.34
65637;DHT22;52327;42.622;23.316;2022-12-07T00:18:56;5.23;90.31
65637;DHT22;52327;42.622;23.316;2022-12-07T00:21:25;5.26;90.29
65637;DHT22;52327;42.622;23.316;2022-12-07T00:23:53;5.25;90.33
65637;DHT22;52327;42.622;23.316;2022-12-07T00:26:23;5.22;90.48
65637;DHT22;52327;42.622;23.316;2022-12-07T00:28:52;5.28;90.39
65637;DHT22;52327;42.622;23.316;2022-12-07T00:31:19;5.22;90.42
65637;DHT22;52327;42.622;23.316;2022-12-07T00:33:45;5.28;90.71
65637;DHT22;52327;42.622;23.316;2022-12-07T00:36:23;5.39;89.92
65637;DHT22;52327;42.622;23.316;2022-12-07T00:38:49;5.51;89.14
65637;DHT22;52327;42.622;23.316;2022-12-07T00:41:21;5.16;88.69
65637;DHT22;52327;42.622;23.316;2022-12-07T00:43:48;5.13;89.09
65637;DHT22;52327;42.622;23.316;2022-12-07T00:46:14;5.20;89.98
65637;DHT22;52327;42.622;23.316;2022-12-07T00:48:40;5.28;90.21
65637;DHT22;52327;42.622;23.316;2022-12-07T00:51:06;5.20;90.26
65637;DHT22;52327;42.622;23.316;2022-12-07T00:53:35;5.18;90.39
65637;DHT22;52327;42.622;23.316;2022-12-07T00:56:08;5.15;90.67
65637;DHT22;52327;42.622;23.316;2022-12-07T00:58:34;5.11;90.42
65637;DHT22;52327;42.622;23.316;2022-12-07T01:01:01;4.91;90.50
65637;DHT22;52327;42.622;23.316;2022-12-07T01:03:27;4.95;91.01
65637;DHT22;52327;42.622;23.316;2022-12-07T01:05:55;4.95;91.26
65637;DHT22;52327;42.622;23.316;2022-12-07T01:08:22;4.98;91.68
65637;DHT22;52327;42.622;23.316;2022-12-07T01:10:48;5.00;91.31
65637;DHT22;52327;42.622;23.316;2022-12-07T01:13:15;5.09;91.41
65637;DHT22;52327;42.622;23.316;2022-12-07T01:15:42;4.91;90.94
65637;DHT22;52327;42.622;23.316;2022-12-07T01:18:07;4.89;91.31
65637;DHT22;52327;42.622;23.316;2022-12-07T01:20:33;5.04;90.80
65637;DHT22;52327;42.622;23.316;2022-12-07T01:22:58;5.04;91.08
65637;DHT22;52327;42.622;23.316;2022-12-07T01:25:24;4.98;91.40
65637;DHT22;52327;42.622;23.316;2022-12-07T01:27:49;5.04;91.59
65637;DHT22;52327;42.622;23.316;2022-12-07T01:30:15;4.96;91.54
65637;DHT22;52327;42.622;23.316;2022-12-07T01:32:40;4.95;91.39
65637;DHT22;52327;42.622;23.316;2022-12-07T01:35:06;5.05;91.28
65637;DHT22;52327;42.622;23.316;2022-12-07T01:37:38;4.98;91.12
65637;DHT22;52327;42.622;23.316;2022-12-07T01:40:07;5.06;91.40
65637;DHT22;52327;42.622;23.316;2022-12-07T01:42:34;5.08;91.39
65637;DHT22;52327;42.622;23.316;2022-12-07T01:48:03;5.04;91.49
65637;DHT22;52327;42.622;23.316;2022-12-07T01:50:29;5.02;91.55
65637;DHT22;52327;42.622;23.316;2022-12-07T01:52:57;4.98;91.36
65637;DHT22;52327;42.622;23.316;2022-12-07T01:55:24;4.98;91.29
65637;DHT22;52327;42.622;23.316;2022-12-07T01:57:52;4.95;91.39
65637;DHT22;52327;42.622;23.316;2022-12-07T02:00:19;4.82;90.81
65637;DHT22;52327;42.622;23.316;2022-12-07T02:02:52;4.79;91.37
65637;DHT22;52327;42.622;23.316;2022-12-07T02:05:19;4.82;91.67
65637;DHT22;52327;42.622;23.316;2022-12-07T02:07:46;4.91;91.62
65637;DHT22;52327;42.622;23.316;2022-12-07T02:10:18;4.93;91.46
65637;DHT22;52327;42.622;23.316;2022-12-07T02:12:46;4.95;91.43
65637;DHT22;52327;42.622;23.316;2022-12-07T02:15:12;4.89;91.39
65637;DHT22;52327;42.622;23.316;2022-12-07T02:18:04;5.00;91.52
65637;DHT22;52327;42.622;23.316;2022-12-07T02:20:39;4.78;91.36
65637;DHT22;52327;42.622;23.316;2022-12-07T02:31:16;5.00;92.03
65637;DHT22;52327;42.622;23.316;2022-12-07T02:33:47;4.98;91.79
65637;DHT22;52327;42.622;23.316;2022-12-07T02:36:30;4.99;91.85
65637;DHT22;52327;42.622;23.316;2022-12-07T02:39:04;4.99;91.36
65637;DHT22;52327;42.622;23.316;2022-12-07T02:41:47;4.95;91.28
65637;DHT22;52327;42.622;23.316;2022-12-07T02:44:16;4.87;91.16
65637;DHT22;52327;42.622;23.316;2022-12-07T02:46:52;4.67;91.02
65637;DHT22;52327;42.622;23.316;2022-12-07T02:49:20;4.40;91.45
65637;DHT22;52327;42.622;23.316;2022-12-07T02:51:46;4.46;91.47
65637;DHT22;52327;42.622;23.316;2022-12-07T02:54:14;4.40;91.93
65637;DHT22;52327;42.622;23.316;2022-12-07T02:56:48;4.50;92.04
65637;DHT22;52327;42.622;23.316;2022-12-07T03:18:26;4.43;91.32
65637;DHT22;52327;42.622;23.316;2022-12-07T03:20:55;4.40;91.29
65637;DHT22;52327;42.622;23.316;2022-12-07T03:23:23;4.34;91.40
65637;DHT22;52327;42.622;23.316;2022-12-07T03:25:54;4.43;91.27
65637;DHT22;52327;42.622;23.316;2022-12-07T03:28:22;4.41;91.83
65637;DHT22;52327;42.622;23.316;2022-12-07T03:30:55;4.56;91.29
65637;DHT22;52327;42.622;23.316;2022-12-07T03:36:11;4.27;92.54
65637;DHT22;52327;42.622;23.316;2022-12-07T03:38:52;4.14;92.60
65637;DHT22;52327;42.622;23.316;2022-12-07T03:41:22;4.26;92.75
65637;DHT22;52327;42.622;23.316;2022-12-07T03:43:49;4.21;92.63
65637;DHT22;52327;42.622;23.316;2022-12-07T03:46:29;4.24;92.75
65637;DHT22;52327;42.622;23.316;2022-12-07T03:49:34;4.36;92.56
65637;DHT22;52327;42.622;23.316;2022-12-07T03:54:47;4.48;92.01
65637;DHT22;52327;42.622;23.316;2022-12-07T03:57:14;4.57;91.81
65637;DHT22;52327;42.622;23.316;2022-12-07T03:59:41;4.61;91.76
65637;DHT22;52327;42.622;23.316;2022-12-07T04:02:11;4.71;90.93
65637;DHT22;52327;42.622;23.316;2022-12-07T04:04:38;4.77;90.86
65637;DHT22;52327;42.622;23.316;2022-12-07T04:07:04;4.74;90.73
65637;DHT22;52327;42.622;23.316;2022-12-07T04:09:29;4.65;91.25
65637;DHT22;52327;42.622;23.316;2022-12-07T04:11:55;4.58;91.07
65637;DHT22;52327;42.622;23.316;2022-12-07T04:14:20;4.34;91.64
65637;DHT22;52327;42.622;23.316;2022-12-07T04:19:12;4.36;92.01
65637;DHT22;52327;42.622;23.316;2022-12-07T04:21:37;4.50;91.66
65637;DHT22;52327;42.622;23.316;2022-12-07T04:24:03;4.57;91.22
65637;DHT22;52327;42.622;23.316;2022-12-07T04:26:29;4.46;91.11
65637;DHT22;52327;42.622;23.316;2022-12-07T04:28:54;4.44;91.34
65637;DHT22;52327;42.622;23.316;2022-12-07T04:31:20;4.40;91.51
65637;DHT22;52327;42.622;23.316;2022-12-07T04:33:45;4.43;91.56
65637;DHT22;52327;42.622;23.316;2022-12-07T04:36:11;4.44;91.43
65637;DHT22;52327;42.622;23.316;2022-12-07T04:38:36;4.37;91.26
65637;DHT22;52327;42.622;23.316;2022-12-07T04:41:05;4.43;90.55
65637;DHT22;52327;42.622;23.316;2022-12-07T04:43:31;4.43;90.74
65637;DHT22;52327;42.622;23.316;2022-12-07T04:45:56;4.34;90.82
65637;DHT22;52327;42.622;23.316;2022-12-07T04:48:22;4.23;91.13
65637;DHT22;52327;42.622;23.316;2022-12-07T04:50:48;4.16;90.86
65637;DHT22;52327;42.622;23.316;2022-12-07T04:53:15;4.07;91.46
65637;DHT22;52327;42.622;23.316;2022-12-07T04:55:40;4.13;91.51
65637;DHT22;52327;42.622;23.316;2022-12-07T04:58:05;4.09;91.36
65637;DHT22;52327;42.622;23.316;2022-12-07T05:00:31;4.00;91.37
65637;DHT22;52327;42.622;23.316;2022-12-07T05:02:56;3.82;91.55
65637;DHT22;52327;42.622;23.316;2022-12-07T05:05:22;3.76;92.03
65637;DHT22;52327;42.622;23.316;2022-12-07T05:07:47;3.86;92.17
65637;DHT22;52327;42.622;23.316;2022-12-07T05:10:12;3.85;92.06
65637;DHT22;52327;42.622;23.316;2022-12-07T05:12:38;3.89;92.18
65637;DHT22;52327;42.622;23.316;2022-12-07T05:15:04;4.00;91.92
65637;DHT22;52327;42.622;23.316;2022-12-07T05:17:29;3.99;91.45
65637;DHT22;52327;42.622;23.316;2022-12-07T05:19:55;3.73;92.89
65637;DHT22;52327;42.622;23.316;2022-12-07T05:22:20;3.72;93.76
65637;DHT22;52327;42.622;23.316;2022-12-07T05:24:46;3.82;93.61
65637;DHT22;52327;42.622;23.316;2022-12-07T05:27:12;3.89;93.01
65637;DHT22;52327;42.622;23.316;2022-12-07T05:29:37;4.03;92.70
65637;DHT22;52327;42.622;23.316;2022-12-07T05:32:02;4.10;92.04
65637;DHT22;52327;42.622;23.316;2022-12-07T05:34:28;4.18;92.17
65637;DHT22;52327;42.622;23.316;2022-12-07T05:36:53;4.30;92.05
65637;DHT22;52327;42.622;23.316;2022-12-07T05:39:18;4.34;92.10
65637;DHT22;52327;42.622;23.316;2022-12-07T05:41:44;4.46;91.77
65637;DHT22;52327;42.622;23.316;2022-12-07T05:44:28;4.58;91.46
65637;DHT22;52327;42.622;23.316;2022-12-07T05:46:54;4.62;91.13
65637;DHT22;52327;42.622;23.316;2022-12-07T05:49:19;4.53;91.80
65637;DHT22;52327;42.622;23.316;2022-12-07T05:51:45;4.54;91.52
65637;DHT22;52327;42.622;23.316;2022-12-07T05:54:10;4.62;91.40
65637;DHT22;52327;42.622;23.316;2022-12-07T05:56:35;4.58;91.43
65637;DHT22;52327;42.622;23.316;2022-12-07T05:59:02;4.61;91.46
65637;DHT22;52327;42.622;23.316;2022-12-07T06:01:46;4.37;91.23
65637;DHT22;52327;42.622;23.316;2022-12-07T06:04:11;4.06;92.10
65637;DHT22;52327;42.622;23.316;2022-12-07T06:06:37;4.11;92.30
65637;DHT22;52327;42.622;23.316;2022-12-07T06:09:03;4.17;92.01
65637;DHT22;52327;42.622;23.316;2022-12-07T06:11:28;4.30;92.08
65637;DHT22;52327;42.622;23.316;2022-12-07T06:14:12;4.44;91.81
65637;DHT22;52327;42.622;23.316;2022-12-07T06:16:38;4.57;91.60
65637;DHT22;52327;42.622;23.316;2022-12-07T06:19:03;4.57;91.68
65637;DHT22;52327;42.622;23.316;2022-12-07T06:21:28;4.79;91.11
65637;DHT22;52327;42.622;23.316;2022-12-07T06:23:54;4.85;91.39
65637;DHT22;52327;42.622;23.316;2022-12-07T06:26:20;4.87;91.42
65637;DHT22;52327;42.622;23.316;2022-12-07T06:28:46;4.87;91.08
65637;DHT22;52327;42.622;23.316;2022-12-07T06:31:11;4.93;90.97
65637;DHT22;52327;42.622;23.316;2022-12-07T06:33:36;5.04;91.08
65637;DHT22;52327;42.622;23.316;2022-12-07T06:36:02;4.95;90.87
65637;DHT22;52327;42.622;23.316;2022-12-07T06:38:27;5.00;90.99
65637;DHT22;52327;42.622;23.316;2022-12-07T06:40:54;5.06;90.88
65637;DHT22;52327;42.622;23.316;2022-12-07T06:43:19;5.19;90.81
65637;DHT22;52327;42.622;23.316;2022-12-07T06:45:45;5.20;90.73
65637;DHT22;52327;42.622;23.316;2022-12-07T06:48:10;4.98;90.46
65637;DHT22;52327;42.622;23.316;2022-12-07T06:50:35;4.79;90.85
65637;DHT22;52327;42.622;23.316;2022-12-07T06:53:01;4.84;91.33
65637;DHT22;52327;42.622;23.316;2022-12-07T06:55:26;4.99;91.51
65637;DHT22;52327;42.622;23.316;2022-12-07T06:57:52;5.18;91.30
65637;DHT22;52327;42.622;23.316;2022-12-07T07:00:17;5.33;91.08
65637;DHT22;52327;42.622;23.316;2022-12-07T07:02:43;5.51;90.45
65637;DHT22;52327;42.622;23.316;2022-12-07T07:05:08;5.60;90.22
65637;DHT22;52327;42.622;23.316;2022-12-07T07:07:34;5.51;90.35
65637;DHT22;52327;42.622;23.316;2022-12-07T07:09:59;5.38;90.05
65637;DHT22;52327;42.622;23.316;2022-12-07T07:12:24;5.33;90.37
65637;DHT22;52327;42.622;23.316;2022-12-07T07:14:50;5.46;89.93
65637;DHT22;52327;42.622;23.316;2022-12-07T07:17:15;5.43;90.14
65637;DHT22;52327;42.622;23.316;2022-12-07T07:19:41;5.19;89.76
65637;DHT22;52327;42.622;23.316;2022-12-07T07:22:06;5.08;90.10
65637;DHT22;52327;42.622;23.316;2022-12-07T07:24:31;4.93;90.51
65637;DHT22;52327;42.622;23.316;2022-12-07T07:26:57;4.98;90.60
65637;DHT22;52327;42.622;23.316;2022-12-07T07:29:22;5.02;89.48
65637;DHT22;52327;42.622;23.316;2022-12-07T07:31:48;4.98;90.14
65637;DHT22;52327;42.622;23.316;2022-12-07T07:34:13;5.04;90.10
65637;DHT22;52327;42.622;23.316;2022-12-07T07:36:39;5.04;90.51
65637;DHT22;52327;42.622;23.316;2022-12-07T07:39:04;4.99;89.94
65637;DHT22;52327;42.622;23.316;2022-12-07T07:41:30;5.04;90.09
65637;DHT22;52327;42.622;23.316;2022-12-07T07:43:56;5.28;89.65
65637;DHT22;52327;42.622;23.316;2022-12-07T07:46:21;5.35;89.43
65637;DHT22;52327;42.622;23.316;2022-12-07T07:48:46;5.50;89.53
65637;DHT22;52327;42.622;23.316;2022-12-07T07:51:12;5.74;89.70
65637;DHT22;52327;42.622;23.316;2022-12-07T07:53:37;5.87;89.27
65637;DHT22;52327;42.622;23.316;2022-12-07T07:56:03;6.05;89.09
65637;DHT22;52327;42.622;23.316;2022-12-07T07:58:31;6.15;88.49
65637;DHT22;52327;42.622;23.316;2022-12-07T08:00:57;6.04;87.60
65637;DHT22;52327;42.622;23.316;2022-12-07T08:03:28;5.61;87.87
65637;DHT22;52327;42.622;23.316;2022-12-07T08:05:53;5.70;88.15
65637;DHT22;52327;42.622;23.316;2022-12-07T08:08:19;5.91;88.34
65637;DHT22;52327;42.622;23.316;2022-12-07T08:10:44;6.05;88.34
65637;DHT22;52327;42.622;23.316;2022-12-07T08:13:16;6.11;88.48
65637;DHT22;52327;42.622;23.316;2022-12-07T08:15:44;6.25;88.13
65637;DHT22;52327;42.622;23.316;2022-12-07T08:21:00;6.38;86.37
65637;DHT22;52327;42.622;23.316;2022-12-07T09:06:22;6.62;87.39
65637;DHT22;52327;42.622;23.316;2022-12-07T09:08:51;6.68;87.51
65637;DHT22;52327;42.622;23.316;2022-12-07T09:11:17;6.69;87.37
65637;DHT22;52327;42.622;23.316;2022-12-07T09:13:43;6.72;87.66
65637;DHT22;52327;42.622;23.316;2022-12-07T09:16:08;6.82;87.54
65637;DHT22;52327;42.622;23.316;2022-12-07T09:18:33;6.99;87.11
65637;DHT22;52327;42.622;23.316;2022-12-07T09:20:59;6.97;86.87
65637;DHT22;52327;42.622;23.316;2022-12-07T09:23:25;7.05;87.17
65637;DHT22;52327;42.622;23.316;2022-12-07T09:25:50;7.14;87.11
65637;DHT22;52327;42.622;23.316;2022-12-07T09:28:15;7.28;86.86
65637;DHT22;52327;42.622;23.316;2022-12-07T09:30:48;7.48;86.47
65637;DHT22;52327;42.622;23.316;2022-12-07T09:33:14;7.62;85.64
65637;DHT22;52327;42.622;23.316;2022-12-07T09:35:50;7.76;85.32
65637;DHT22;52327;42.622;23.316;2022-12-07T09:38:17;7.96;84.93
65637;DHT22;52327;42.622;23.316;2022-12-07T09:40:43;8.16;84.23
65637;DHT22;52327;42.622;23.316;2022-12-07T09:43:14;8.32;83.84
65637;DHT22;52327;42.622;23.316;2022-12-07T09:45:41;8.44;83.50
65637;DHT22;52327;42.622;23.316;2022-12-07T09:48:17;8.51;82.40
65637;DHT22;52327;42.622;23.316;2022-12-07T09:50:43;8.74;81.49
65637;DHT22;52327;42.622;23.316;2022-12-07T09:53:33;8.72;81.01
65637;DHT22;52327;42.622;23.316;2022-12-07T09:56:01;8.74;80.30
65637;DHT22;52327;42.622;23.316;2022-12-07T09:58:28;8.77;80.99
65637;DHT22;52327;42.622;23.316;2022-12-07T10:01:01;8.68;81.32
65637;DHT22;52327;42.622;23.316;2022-12-07T10:03:27;8.63;82.35
65637;DHT22;52327;42.622;23.316;2022-12-07T10:05:54;8.75;82.05
65637;DHT22;52327;42.622;23.316;2022-12-07T10:08:20;8.88;81.31
65637;DHT22;52327;42.622;23.316;2022-12-07T10:10:50;8.78;80.69
65637;DHT22;52327;42.622;23.316;2022-12-07T10:13:21;8.85;81.50
65637;DHT22;52327;42.622;23.316;2022-12-07T10:15:55;8.93;81.48
65637;DHT22;52327;42.622;23.316;2022-12-07T10:18:31;9.02;79.83
65637;DHT22;52327;42.622;23.316;2022-12-07T10:21:13;9.19;79.44
65637;DHT22;52327;42.622;23.316;2022-12-07T10:23:59;9.43;78.00
65637;DHT22;52327;42.622;23.316;2022-12-07T10:26:35;9.61;78.73
65637;DHT22;52327;42.622;23.316;2022-12-07T10:29:17;9.91;77.85
65637;DHT22;52327;42.622;23.316;2022-12-07T10:31:45;10.10;78.16
65637;DHT22;52327;42.622;23.316;2022-12-07T10:34:32;10.28;77.15
65637;DHT22;52327;42.622;23.316;2022-12-07T10:39:51;10.44;77.27
65637;DHT22;52327;42.622;23.316;2022-12-07T10:42:25;10.51;76.43
65637;DHT22;52327;42.622;23.316;2022-12-07T10:45:13;10.42;76.40
65637;DHT22;52327;42.622;23.316;2022-12-07T10:48:04;10.44;76.98
65637;DHT22;52327;42.622;23.316;2022-12-07T10:50:55;10.48;75.11
65637;DHT22;52327;42.622;23.316;2022-12-07T10:54:01;10.59;74.81
65637;DHT22;52327;42.622;23.316;2022-12-07T10:56:37;10.69;74.04
65637;DHT22;52327;42.622;23.316;2022-12-07T10:59:31;10.80;73.76
65637;DHT22;52327;42.622;23.316;2022-12-07T11:02:25;10.72;72.98
65637;DHT22;52327;42.622;23.316;2022-12-07T11:10:40;10.76;74.40
65637;DHT22;52327;42.622;23.316;2022-12-07T11:13:22;10.73;75.38
65637;DHT22;52327;42.622;23.316;2022-12-07T11:24:20;10.38;72.40
65637;DHT22;52327;42.622;23.316;2022-12-07T11:32:25;10.58;72.81
65637;DHT22;52327;42.622;23.316;2022-12-07T11:37:37;10.61;73.63
65637;DHT22;52327;42.622;23.316;2022-12-07T11:42:52;10.44;72.11
65637;DHT22;52327;42.622;23.316;2022-12-07T11:45:29;10.41;74.09
65637;DHT22;52327;42.622;23.316;2022-12-07T11:48:01;10.22;73.29
65637;DHT22;52327;42.622;23.316;2022-12-07T11:50:41;10.30;70.80
65637;DHT22;52327;42.622;23.316;2022-12-07T11:56:08;10.35;69.63
65637;DHT22;52327;42.622;23.316;2022-12-07T12:06:41;10.34;71.09
65637;DHT22;52327;42.622;23.316;2022-12-07T12:23:16;10.73;71.75
65637;DHT22;52327;42.622;23.316;2022-12-07T12:25:47;10.76;72.36
65637;DHT22;52327;42.622;23.316;2022-12-07T12:31:06;10.83;68.62
65637;DHT22;52327;42.622;23.316;2022-12-07T12:33:33;10.93;72.36
65637;DHT22;52327;42.622;23.316;2022-12-07T12:36:18;10.56;69.31
65637;DHT22;52327;42.622;23.316;2022-12-07T12:39:09;10.44;73.08
65637;DHT22;52327;42.622;23.316;2022-12-07T12:55:48;11.16;71.83
65637;DHT22;52327;42.622;23.316;2022-12-07T13:00:43;11.38;70.04
65637;DHT22;52327;42.622;23.316;2022-12-07T13:03:27;11.31;71.23
65637;DHT22;52327;42.622;23.316;2022-12-07T13:08:43;11.38;70.79
65637;DHT22;52327;42.622;23.316;2022-12-07T13:11:25;11.37;69.40
65637;DHT22;52327;42.622;23.316;2022-12-07T13:13:52;11.26;68.94
65637;DHT22;52327;42.622;23.316;2022-12-07T13:18:43;10.73;70.37
65637;DHT22;52327;42.622;23.316;2022-12-07T13:26:19;10.17;74.82
65637;DHT22;52327;42.622;23.316;2022-12-07T13:28:48;10.20;74.80
65637;DHT22;52327;42.622;23.316;2022-12-07T13:31:33;10.28;75.36
65637;DHT22;52327;42.622;23.316;2022-12-07T13:34:01;10.34;75.37
65637;DHT22;52327;42.622;23.316;2022-12-07T13:36:33;10.24;74.64
65637;DHT22;52327;42.622;23.316;2022-12-07T13:41:42;10.24;77.49
65637;DHT22;52327;42.622;23.316;2022-12-07T13:44:15;10.25;76.82
65637;DHT22;52327;42.622;23.316;2022-12-07T13:49:44;10.30;76.91
65637;DHT22;52327;42.622;23.316;2022-12-07T13:54:59;10.30;77.60
65637;DHT22;52327;42.622;23.316;2022-12-07T13:57:26;10.31;78.14
65637;DHT22;52327;42.622;23.316;2022-12-07T13:59:52;10.32;77.33
65637;DHT22;52327;42.622;23.316;2022-12-07T14:02:24;10.30;77.76
65637;DHT22;52327;42.622;23.316;2022-12-07T14:04:51;10.14;76.34
65637;DHT22;52327;42.622;23.316;2022-12-07T14:07:26;10.10;77.80
65637;DHT22;52327;42.622;23.316;2022-12-07T14:12:49;9.89;76.98
65637;DHT22;52327;42.622;23.316;2022-12-07T14:15:24;9.73;77.54
65637;DHT22;52327;42.622;23.316;2022-12-07T14:17:53;9.44;79.47
65637;DHT22;52327;42.622;23.316;2022-12-07T14:20:34;9.28;76.87
65637;DHT22;52327;42.622;23.316;2022-12-07T14:23:00;9.22;75.27
65637;DHT22;52327;42.622;23.316;2022-12-07T14:25:47;9.19;74.60
65637;DHT22;52327;42.622;23.316;2022-12-07T14:28:30;8.93;74.98
65637;DHT22;52327;42.622;23.316;2022-12-07T14:30:56;8.70;76.94
65637;DHT22;52327;42.622;23.316;2022-12-07T14:33:22;8.64;78.37
65637;DHT22;52327;42.622;23.316;2022-12-07T14:35:48;8.56;76.28
65637;DHT22;52327;42.622;23.316;2022-12-07T14:38:15;8.33;76.07
65637;DHT22;52327;42.622;23.316;2022-12-07T14:40:40;8.06;78.35
65637;DHT22;52327;42.622;23.316;2022-12-07T14:43:11;7.92;80.76
65637;DHT22;52327;42.622;23.316;2022-12-07T14:45:40;7.71;79.05
65637;DHT22;52327;42.622;23.316;2022-12-07T14:48:06;7.58;80.60
65637;DHT22;52327;42.622;23.316;2022-12-07T14:50:41;7.64;81.44
65637;DHT22;52327;42.622;23.316;2022-12-07T14:53:14;7.50;81.39
65637;DHT22;52327;42.622;23.316;2022-12-07T14:55:40;7.44;81.15
65637;DHT22;52327;42.622;23.316;2022-12-07T14:58:05;7.27;83.31
65637;DHT22;52327;42.622;23.316;2022-12-07T15:00:31;7.21;83.77
65637;DHT22;52327;42.622;23.316;2022-12-07T15:02:57;7.17;84.44
65637;DHT22;52327;42.622;23.316;2022-12-07T15:05:22;6.99;84.68
65637;DHT22;52327;42.622;23.316;2022-12-07T15:07:48;6.94;85.55
65637;DHT22;52327;42.622;23.316;2022-12-07T15:10:22;6.92;85.28
65637;DHT22;52327;42.622;23.316;2022-12-07T15:12:48;6.96;81.78
65637;DHT22;52327;42.622;23.316;2022-12-07T15:15:14;6.87;85.76
65637;DHT22;52327;42.622;23.316;2022-12-07T15:17:40;6.72;85.81
65637;DHT22;52327;42.622;23.316;2022-12-07T15:20:09;6.71;85.22
65637;DHT22;52327;42.622;23.316;2022-12-07T15:22:36;6.72;81.58
65637;DHT22;52327;42.622;23.316;2022-12-07T15:25:01;6.80;81.06
65637;DHT22;52327;42.622;23.316;2022-12-07T15:27:30;6.62;84.61
65637;DHT22;52327;42.622;23.316;2022-12-07T15:29:55;6.56;85.03
65637;DHT22;52327;42.622;23.316;2022-12-07T15:32:21;6.29;86.10
65637;DHT22;52327;42.622;23.316;2022-12-07T15:34:49;6.11;87.11
65637;DHT22;52327;42.622;23.316;2022-12-07T15:37:15;6.02;87.49
65637;DHT22;52327;42.622;23.316;2022-12-07T15:39:40;5.93;87.55
65637;DHT22;52327;42.622;23.316;2022-12-07T15:42:06;5.90;88.10
65637;DHT22;52327;42.622;23.316;2022-12-07T15:44:31;5.90;88.42
65637;DHT22;52327;42.622;23.316;2022-12-07T15:47:15;5.80;88.70
65637;DHT22;52327;42.622;23.316;2022-12-07T15:49:41;5.75;89.03
65637;DHT22;52327;42.622;23.316;2022-12-07T15:52:06;5.78;87.83
65637;DHT22;52327;42.622;23.316;2022-12-07T15:54:32;5.86;88.80
65637;DHT22;52327;42.622;23.316;2022-12-07T15:56:58;5.86;88.57
65637;DHT22;52327;42.622;23.316;2022-12-07T15:59:25;5.95;87.89
65637;DHT22;52327;42.622;23.316;2022-12-07T16:01:50;6.02;88.15
65637;DHT22;52327;42.622;23.316;2022-12-07T16:04:16;5.87;88.48
65637;DHT22;52327;42.622;23.316;2022-12-07T16:06:41;5.77;88.46
65637;DHT22;52327;42.622;23.316;2022-12-07T16:09:07;5.77;88.70
65637;DHT22;52327;42.622;23.316;2022-12-07T16:11:33;5.73;89.23
65637;DHT22;52327;42.622;23.316;2022-12-07T16:13:58;5.75;89.13
65637;DHT22;52327;42.622;23.316;2022-12-07T16:16:24;5.78;88.45
65637;DHT22;52327;42.622;23.316;2022-12-07T16:18:50;5.87;88.34
65637;DHT22;52327;42.622;23.316;2022-12-07T16:21:16;5.90;88.15
65637;DHT22;52327;42.622;23.316;2022-12-07T16:23:43;5.80;88.94
65637;DHT22;52327;42.622;23.316;2022-12-07T16:26:14;5.73;88.92
65637;DHT22;52327;42.622;23.316;2022-12-07T16:28:40;5.73;89.16
65637;DHT22;52327;42.622;23.316;2022-12-07T16:31:11;5.70;89.01
65637;DHT22;52327;42.622;23.316;2022-12-07T16:33:38;5.63;89.03
65637;DHT22;52327;42.622;23.316;2022-12-07T16:36:05;5.56;89.27
65637;DHT22;52327;42.622;23.316;2022-12-07T16:38:31;5.67;88.92
65637;DHT22;52327;42.622;23.316;2022-12-07T16:40:56;5.70;88.69
65637;DHT22;52327;42.622;23.316;2022-12-07T16:43:22;5.63;89.83
65637;DHT22;52327;42.622;23.316;2022-12-07T16:45:48;5.73;89.67
65637;DHT22;52327;42.622;23.316;2022-12-07T16:48:14;5.66;89.00
65637;DHT22;52327;42.622;23.316;2022-12-07T16:50:41;5.64;89.41
65637;DHT22;52327;42.622;23.316;2022-12-07T16:53:08;5.61;89.63
65637;DHT22;52327;42.622;23.316;2022-12-07T16:55:42;5.51;89.68
65637;DHT22;52327;42.622;23.316;2022-12-07T16:58:09;5.53;89.17
65637;DHT22;52327;42.622;23.316;2022-12-07T17:00:36;5.63;89.29
65637;DHT22;52327;42.622;23.316;2022-12-07T17:03:01;5.78;88.74
65637;DHT22;52327;42.622;23.316;2022-12-07T17:05:27;5.77;89.07
65637;DHT22;52327;42.622;23.316;2022-12-07T17:07:55;5.70;89.10
65637;DHT22;52327;42.622;23.316;2022-12-07T17:10:20;5.71;89.17
65637;DHT22;52327;42.622;23.316;2022-12-07T17:12:48;5.67;89.35
65637;DHT22;52327;42.622;23.316;2022-12-07T17:15:14;5.59;89.57
65637;DHT22;52327;42.622;23.316;2022-12-07T17:17:45;5.59;89.93
65637;DHT22;52327;42.622;23.316;2022-12-07T17:20:12;5.53;90.09
65637;DHT22;52327;42.622;23.316;2022-12-07T17:22:37;5.57;89.81
65637;DHT22;52327;42.622;23.316;2022-12-07T17:25:04;5.67;87.96
65637;DHT22;52327;42.622;23.316;2022-12-07T17:27:30;5.71;87.91
65637;DHT22;52327;42.622;23.316;2022-12-07T17:29:56;5.69;88.76
65637;DHT22;52327;42.622;23.316;2022-12-07T17:32:21;5.70;87.92
65637;DHT22;52327;42.622;23.316;2022-12-07T17:34:47;5.51;89.00
65637;DHT22;52327;42.622;23.316;2022-12-07T17:37:12;5.50;88.79
65637;DHT22;52327;42.622;23.316;2022-12-07T17:39:38;5.44;89.57
65637;DHT22;52327;42.622;23.316;2022-12-07T17:42:03;5.47;89.56
65637;DHT22;52327;42.622;23.316;2022-12-07T17:44:47;5.40;89.89
65637;DHT22;52327;42.622;23.316;2022-12-07T17:47:12;5.30;90.46
65637;DHT22;52327;42.622;23.316;2022-12-07T17:49:39;5.39;90.28
65637;DHT22;52327;42.622;23.316;2022-12-07T17:52:05;5.49;90.07
65637;DHT22;52327;42.622;23.316;2022-12-07T17:54:49;5.63;89.47
65637;DHT22;52327;42.622;23.316;2022-12-07T17:57:14;5.66;89.51
65637;DHT22;52327;42.622;23.316;2022-12-07T17:59:40;5.86;87.38
65637;DHT22;52327;42.622;23.316;2022-12-07T18:02:05;5.78;87.84
65637;DHT22;52327;42.622;23.316;2022-12-07T18:04:31;5.83;88.38
65637;DHT22;52327;42.622;23.316;2022-12-07T18:06:57;5.81;88.37
65637;DHT22;52327;42.622;23.316;2022-12-07T18:09:22;5.66;88.84
65637;DHT22;52327;42.622;23.316;2022-12-07T18:11:48;5.69;88.59
65637;DHT22;52327;42.622;23.316;2022-12-07T18:14:21;5.67;89.05
65637;DHT22;52327;42.622;23.316;2022-12-07T18:16:47;5.57;88.76
65637;DHT22;52327;42.622;23.316;2022-12-07T18:19:14;5.36;89.61
65637;DHT22;52327;42.622;23.316;2022-12-07T18:21:42;5.30;90.04
65637;DHT22;52327;42.622;23.316;2022-12-07T18:24:10;5.26;90.34
65637;DHT22;52327;42.622;23.316;2022-12-07T18:26:35;5.23;90.65
65637;DHT22;52327;42.622;23.316;2022-12-07T18:29:02;5.36;89.40
65637;DHT22;52327;42.622;23.316;2022-12-07T18:31:29;5.43;88.21
65637;DHT22;52327;42.622;23.316;2022-12-07T18:33:55;5.30;89.17
65637;DHT22;52327;42.622;23.316;2022-12-07T18:36:21;5.26;89.58
65637;DHT22;52327;42.622;23.316;2022-12-07T18:38:47;5.26;89.70